Time;durP1;ratioP1;P1;durP2;ratioP2;P2;SDS_P1;SDS_P2;PMS_P1;PMS_P2;Temp;Humidity;BMP_temperature;BMP_pressure;BME280_temperature;BME280_humidity;BME280_pressure;Samples;Min_cycle;Max_cycle;Signal;HPM_P1;HPM_P2
2021/01/08 00:02:44;;;;;;;15.48;8.48;;;;;;;2.18;71.36;99921.80;2146855;80;29586;-64
2021/01/08 00:05:47;;;;;;;31.33;13.45;;;;;;;2.18;71.53;99916.97;2097354;81;31026;-64
2021/01/08 00:08:50;;;;;;;22.13;10.45;;;;;;;2.17;70.86;99917.87;2146981;80;34051;-64
2021/01/08 00:11:56;;;;;;;26.85;11.83;;;;;;;2.15;70.42;99916.59;2207851;80;28941;-66
2021/01/08 00:14:59;;;;;;;28.90;13.15;;;;;;;2.16;70.57;99915.67;2125164;81;27785;-65
2021/01/08 00:18:02;;;;;;;33.00;17.15;;;;;;;2.18;70.69;99911.69;2135153;80;28592;-65
2021/01/08 00:21:04;;;;;;;27.67;15.48;;;;;;;2.21;70.94;99919.09;2156074;80;32241;-67
2021/01/08 00:24:07;;;;;;;23.87;12.63;;;;;;;2.22;70.50;99922.16;2182395;80;32952;-66
2021/01/08 00:27:09;;;;;;;19.32;11.40;;;;;;;2.25;70.98;99911.52;2121735;81;28521;-66
2021/01/08 00:30:14;;;;;;;22.60;11.30;;;;;;;2.26;70.76;99909.73;2122667;81;27739;-65
2021/01/08 00:33:16;;;;;;;22.02;13.03;;;;;;;2.27;70.96;99902.23;2121544;81;28578;-65
2021/01/08 00:36:18;;;;;;;25.97;13.32;;;;;;;2.26;70.79;99901.37;2113208;82;31510;-64
2021/01/08 00:39:22;;;;;;;24.30;13.50;;;;;;;2.28;71.13;99903.53;2139741;81;33551;-65
2021/01/08 00:42:24;;;;;;;27.55;14.13;;;;;;;2.25;70.55;99904.03;2075949;81;28723;-67
2021/01/08 00:45:26;;;;;;;23.92;13.72;;;;;;;2.22;70.46;99901.02;2106011;81;27752;-65
2021/01/08 00:48:29;;;;;;;24.72;13.72;;;;;;;2.20;70.58;99898.84;2140565;81;28621;-65
2021/01/08 00:51:38;;;;;;;24.20;13.75;;;;;;;2.19;70.91;99900.22;2118934;81;31114;-64
2021/01/08 00:54:44;;;;;;;23.22;12.98;;;;;;;2.18;71.01;99903.30;2061257;84;33022;-64
2021/01/08 00:57:45;;;;;;;26.12;13.48;;;;;;;2.18;71.18;99899.33;2029419;86;28948;-64
2021/01/08 01:00:48;;;;;;;28.92;15.48;;;;;;;2.20;71.20;99904.60;1987015;87;27806;-65
2021/01/08 01:03:51;;;;;;;30.10;14.65;;;;;;;2.23;71.30;99908.51;2013928;86;28725;-65
2021/01/08 01:06:53;;;;;;;32.53;16.85;;;;;;;2.26;71.41;99907.98;2016649;86;31906;-65
2021/01/08 01:09:55;;;;;;;37.63;17.87;;;;;;;2.28;71.23;99909.25;2017120;86;33193;-66
2021/01/08 01:12:58;;;;;;;35.25;17.67;;;;;;;2.31;71.26;99909.66;2014168;86;29527;-65
2021/01/08 01:16:00;;;;;;;35.73;18.48;;;;;;;2.31;71.32;99915.80;2016303;86;27775;-65
2021/01/08 01:19:03;;;;;;;40.83;19.10;;;;;;;2.32;71.30;99918.01;2060149;83;28857;-66
2021/01/08 01:22:05;;;;;;;41.20;19.27;;;;;;;2.31;71.44;99918.91;2096980;82;30936;-66
2021/01/08 01:25:09;;;;;;;31.77;17.20;;;;;;;2.29;71.57;99917.60;2109536;81;33566;-65
2021/01/08 01:28:11;;;;;;;31.35;15.38;;;;;;;2.27;71.56;99912.80;2121104;81;28638;-65
2021/01/08 01:31:13;;;;;;;28.30;15.95;;;;;;;2.26;71.30;99907.09;2118768;80;27696;-67
2021/01/08 01:34:18;;;;;;;30.45;15.78;;;;;;;2.26;71.42;99912.38;2161219;80;28837;-65
2021/01/08 01:37:21;;;;;;;30.52;17.37;;;;;;;2.27;71.44;99915.44;2217430;80;31139;-65
2021/01/08 01:40:27;;;;;;;31.60;16.90;;;;;;;2.27;71.35;99912.80;2160607;80;34182;-65
2021/01/08 01:43:29;;;;;;;;;;;;;;;2.28;71.45;99914.54;2106336;80;29814;-65
2021/01/08 01:46:34;;;;;;;34.15;18.82;;;;;;;2.28;71.31;99912.78;2125055;81;27679;-66
2021/01/08 01:49:36;;;;;;;30.68;17.70;;;;;;;2.26;71.31;99912.38;2131484;80;29700;-65
2021/01/08 01:52:38;;;;;;;27.37;17.20;;;;;;;2.23;71.33;99919.08;2153849;80;30966;-66
2021/01/08 01:55:41;;;;;;;33.75;18.95;;;;;;;2.21;71.35;99919.09;2186510;80;33095;-65
2021/01/08 01:58:46;;;;;;;31.05;17.75;;;;;;;2.18;71.20;99916.50;2186471;80;28693;-66
2021/01/08 02:01:50;;;;;;;29.30;17.17;;;;;;;2.14;71.12;99910.89;2100414;81;27651;-66
2021/01/08 02:04:54;;;;;;;28.67;16.37;;;;;;;2.11;71.16;99918.41;2176824;80;28601;-65
2021/01/08 02:08:09;;;;;;;32.98;17.30;;;;;;;2.07;71.02;99920.69;2175603;81;31359;-65
2021/01/08 02:11:13;;;;;;;;;;;;;;;2.05;71.21;99924.28;2174879;80;33210;-65
2021/01/08 02:14:29;;;;;;;26.93;15.10;;;;;;;2.03;71.42;99925.64;2135058;81;28873;-65
2021/01/08 02:17:33;;;;;;;32.35;16.67;;;;;;;2.01;71.40;99914.67;2128260;81;27729;-66
2021/01/08 02:20:35;;;;;;;26.17;15.10;;;;;;;2.03;71.55;99919.05;2130289;81;28832;-66
2021/01/08 02:24:01;;;;;;;24.65;14.63;;;;;;;2.05;71.57;99917.67;2187897;80;31232;-65
2021/01/08 02:27:03;;;;;;;22.22;14.15;;;;;;;2.07;71.53;99914.09;2171656;80;33069;-65
2021/01/08 02:30:08;;;;;;;30.60;16.10;;;;;;;2.09;71.74;99909.64;2137222;80;28643;-65
2021/01/08 02:33:11;;;;;;;28.30;16.82;;;;;;;2.10;71.69;99915.81;2112598;83;27735;-65
2021/01/08 02:36:13;;;;;;;31.60;16.60;;;;;;;2.09;71.54;99911.43;2092351;83;28638;-66
2021/01/08 02:39:16;;;;;;;31.95;17.20;;;;;;;2.07;71.49;99910.59;2121143;82;31152;-65
2021/01/08 02:42:18;;;;;;;29.07;17.30;;;;;;;2.06;71.49;99911.49;2129018;80;33131;-66
2021/01/08 02:45:20;;;;;;;33.38;17.70;;;;;;;2.03;71.59;99908.47;2146607;80;29628;-65
2021/01/08 02:48:23;;;;;;;30.43;17.55;;;;;;;2.02;71.59;99913.77;2146114;80;28248;-66
2021/01/08 02:51:26;;;;;;;31.77;16.73;;;;;;;1.98;71.62;99910.33;2159168;80;28917;-66
2021/01/08 02:54:29;;;;;;;31.00;16.52;;;;;;;1.96;71.66;99906.84;2173189;81;31636;-65
2021/01/08 02:57:31;;;;;;;27.35;17.32;;;;;;;1.97;71.72;99905.95;2117786;82;33217;-65
2021/01/08 03:00:34;;;;;;;32.25;18.65;;;;;;;1.97;71.71;99904.19;2117041;82;28848;-65
2021/01/08 03:03:36;;;;;;;33.30;18.80;;;;;;;1.98;71.85;99898.44;2138738;82;27989;-64
2021/01/08 03:06:42;;;;;;;32.15;17.30;;;;;;;2.00;71.85;99897.97;2112268;84;30235;-64
2021/01/08 03:09:45;;;;;;;36.50;18.82;;;;;;;2.00;71.75;99895.75;2049046;81;31179;-64
2021/01/08 03:13:03;;;;;;;33.45;18.62;;;;;;;1.99;71.69;99901.50;2096442;82;32914;-64
2021/01/08 03:16:07;;;;;;;32.75;18.48;;;;;;;1.97;71.70;99901.98;2120201;82;28866;-65
2021/01/08 03:19:09;;;;;;;33.05;17.52;;;;;;;1.94;71.77;99899.40;2093568;82;27730;-65
2021/01/08 03:22:11;;;;;;;35.68;19.05;;;;;;;1.92;71.77;99897.23;2062492;82;28941;-64
2021/01/08 03:25:14;;;;;;;33.63;19.80;;;;;;;1.90;71.78;99897.28;2032559;84;30866;-64
2021/01/08 03:28:17;;;;;;;33.55;18.62;;;;;;;1.88;71.65;99896.91;2082599;82;33135;-64
2021/01/08 03:31:20;;;;;;;33.88;17.95;;;;;;;1.84;71.82;99899.18;2044588;82;29896;-63
2021/01/08 03:34:22;;;;;;;32.53;18.37;;;;;;;1.84;71.96;99897.39;2063674;84;27790;-65
2021/01/08 03:37:24;;;;;;;34.60;19.25;;;;;;;1.86;72.04;99896.06;2055657;82;28769;-64
2021/01/08 03:40:26;;;;;;;35.73;20.23;;;;;;;1.87;72.02;99889.88;2060339;84;30919;-65
2021/01/08 03:43:29;;;;;;;34.18;20.00;;;;;;;1.88;72.09;99891.16;2094262;84;32838;-66
2021/01/08 03:46:35;;;;;;;41.30;21.77;;;;;;;1.91;72.14;99887.14;2113480;84;29174;-65
2021/01/08 03:49:38;;;;;;;33.00;19.27;;;;;;;1.92;72.13;99886.23;2044959;84;27709;-66
2021/01/08 03:52:39;;;;;;;31.33;17.98;;;;;;;1.93;72.13;99886.66;2047846;85;28571;-65
2021/01/08 03:55:41;;;;;;;41.55;22.82;;;;;;;1.91;72.13;99892.42;2120610;83;31140;-65
2021/01/08 03:58:43;;;;;;;40.23;22.82;;;;;;;1.89;72.18;99885.44;2070550;82;34544;-65
2021/01/08 04:01:46;;;;;;;40.05;21.07;;;;;;;1.87;72.32;99892.05;2090318;82;28901;-64
2021/01/08 04:04:48;;;;;;;38.73;21.52;;;;;;;1.87;72.16;99889.41;2061562;82;27703;-65
2021/01/08 04:07:50;;;;;;;37.67;21.23;;;;;;;1.87;72.32;99891.20;2109834;82;28929;-65
2021/01/08 04:10:52;;;;;;;45.92;23.85;;;;;;;1.85;72.20;99880.65;2112774;82;30715;-65
2021/01/08 04:13:54;;;;;;;39.88;20.75;;;;;;;1.87;72.33;99884.13;2120906;82;33110;-65
2021/01/08 04:16:57;;;;;;;36.95;21.75;;;;;;;1.88;72.42;99881.91;2083072;82;29269;-64
2021/01/08 04:19:59;;;;;;;42.62;22.90;;;;;;;1.88;72.32;99887.19;2085022;83;28167;-65
2021/01/08 04:23:01;;;;;;;38.95;22.27;;;;;;;1.88;72.43;99885.02;2159586;81;27651;-65
2021/01/08 04:26:03;;;;;;;45.80;24.72;;;;;;;1.87;72.34;99889.41;2076504;84;31603;-65
2021/01/08 04:29:05;;;;;;;42.50;22.60;;;;;;;1.86;72.44;99892.09;2058873;84;34088;-65
2021/01/08 04:32:08;;;;;;;41.53;22.42;;;;;;;1.83;72.48;99896.97;2130447;81;29865;-65
2021/01/08 04:35:11;;;;;;;44.13;21.90;;;;;;;1.82;72.56;99889.98;2043578;84;27769;-65
2021/01/08 04:38:13;;;;;;;38.05;21.87;;;;;;;1.82;72.59;99892.16;2083103;83;28605;-65
2021/01/08 04:41:16;;;;;;;40.83;22.62;;;;;;;1.82;72.66;99893.94;2113397;83;31142;-66
2021/01/08 04:44:19;;;;;;;39.15;22.00;;;;;;;1.81;72.54;99897.48;2046930;85;33111;-66
2021/01/08 04:47:22;;;;;;;41.70;22.55;;;;;;;1.81;72.53;99889.09;2118485;81;30108;-65
2021/01/08 04:50:25;;;;;;;38.75;21.17;;;;;;;1.80;72.53;99890.45;2059943;84;27794;-64
2021/01/08 04:53:30;;;;;;;39.65;22.60;;;;;;;1.80;72.56;99889.14;2070103;82;28865;-66
2021/01/08 04:56:41;;;;;;;40.03;22.50;;;;;;;1.78;72.45;99890.47;2133088;81;31186;-65
2021/01/08 04:59:43;;;;;;;43.17;21.93;;;;;;;1.76;72.59;99888.30;2071378;84;32629;-66
2021/01/08 05:02:46;;;;;;;39.40;22.13;;;;;;;1.73;72.61;99884.44;2075781;84;28898;-67
2021/01/08 05:05:49;;;;;;;40.80;21.60;;;;;;;1.72;72.67;99890.61;2150138;82;27641;-65
2021/01/08 05:08:51;;;;;;;40.10;22.10;;;;;;;1.72;72.71;99885.77;2094568;82;28830;-64
2021/01/08 05:11:55;;;;;;;42.03;22.42;;;;;;;1.72;72.83;99885.33;2049501;83;31016;-64
2021/01/08 05:14:57;;;;;;;39.23;21.27;;;;;;;1.73;72.94;99885.75;2073177;84;33689;-65
2021/01/08 05:18:03;;;;;;;39.78;22.25;;;;;;;1.74;72.99;99883.50;2175823;81;30123;-65
2021/01/08 05:21:06;;;;;;;42.33;22.65;;;;;;;1.74;72.95;99889.25;2075835;84;27704;-66
2021/01/08 05:24:10;;;;;;;38.83;23.40;;;;;;;1.72;72.92;99885.33;2125592;83;28634;-65
2021/01/08 05:27:12;;;;;;;45.28;24.45;;;;;;;1.70;72.96;99884.48;2148349;80;30991;-65
2021/01/08 05:33:41;;;;;;;42.30;23.97;;;;;;;1.69;73.02;99881.42;2262661;76;27758;-64
2021/01/08 05:36:45;;;;;;;44.05;24.00;;;;;;;1.64;73.04;99889.45;2149319;81;27770;-65
2021/01/08 05:39:49;;;;;;;41.83;23.90;;;;;;;1.65;72.97;99889.87;2125509;81;29734;-65
2021/01/08 05:43:00;;;;;;;40.73;23.15;;;;;;;1.65;73.04;99879.73;2093265;83;30947;-65
2021/01/08 05:46:16;;;;;;;44.60;25.00;;;;;;;1.67;73.14;99889.83;2158123;80;33308;-64
2021/01/08 05:49:19;;;;;;;42.08;23.47;;;;;;;1.69;73.02;99888.03;2146801;81;28532;-65
2021/01/08 05:52:24;;;;;;;45.55;26.50;;;;;;;1.70;73.10;99885.81;2170203;81;27701;-65
2021/01/08 05:55:27;;;;;;;46.25;25.77;;;;;;;1.70;73.07;99879.64;2111549;83;28921;-64
2021/01/08 05:58:30;;;;;;;51.85;26.12;;;;;;;1.70;73.01;99882.28;2107338;83;30951;-64
2021/01/08 06:01:38;;;;;;;45.80;24.82;;;;;;;1.69;73.01;99882.75;2174136;81;33105;-63
2021/01/08 06:04:41;;;;;;;45.83;25.72;;;;;;;1.67;72.98;99883.22;2126496;82;28642;-64
2021/01/08 06:07:48;;;;;;;44.03;23.07;;;;;;;1.65;73.07;99883.70;2147322;81;27835;-62
2021/01/08 06:10:54;;;;;;;41.75;23.42;;;;;;;1.64;73.05;99888.13;2178754;81;28906;-65
2021/01/08 06:14:00;;;;;;;42.45;24.47;;;;;;;1.66;73.18;99882.34;2123345;81;31172;-63
2021/01/08 06:17:03;;;;;;;43.20;22.77;;;;;;;1.69;73.23;99889.78;2154249;81;33116;-64
2021/01/08 06:20:07;;;;;;;49.63;25.17;;;;;;;1.73;73.26;99896.75;2116857;83;28856;-64
2021/01/08 06:23:09;;;;;;;36.03;17.67;;;;;;;1.74;73.06;99890.57;2149972;80;27749;-63
2021/01/08 06:26:20;;;;;;;42.30;23.07;;;;;;;1.75;73.07;99894.48;2182664;80;29368;-65
2021/01/08 06:29:24;;;;;;;40.75;23.85;;;;;;;1.75;73.22;99887.89;2151278;80;31015;-65
2021/01/08 06:32:30;;;;;;;43.33;24.23;;;;;;;1.78;73.20;99894.90;2158335;80;34376;-64
2021/01/08 06:35:33;;;;;;;43.80;24.70;;;;;;;1.77;73.18;99895.80;2186145;81;28855;-65
2021/01/08 06:38:37;;;;;;;43.48;23.90;;;;;;;1.75;73.07;99902.87;2136660;81;27679;-65
2021/01/08 06:41:40;;;;;;;43.63;25.15;;;;;;;1.71;73.11;99895.91;2139294;80;28930;-65
2021/01/08 06:44:42;;;;;;;47.40;24.50;;;;;;;1.66;73.13;99902.61;2085171;81;31248;-65
2021/01/08 06:47:47;;;;;;;40.80;22.62;;;;;;;1.63;73.12;99907.51;2135254;81;33809;-66
2021/01/08 06:50:54;;;;;;;42.45;23.20;;;;;;;1.60;73.19;99912.84;2160600;80;28868;-65
2021/01/08 06:54:05;;;;;;;43.28;23.67;;;;;;;1.60;73.20;99918.55;2156979;80;27667;-65
2021/01/08 06:57:17;;;;;;;51.10;24.40;;;;;;;1.60;73.33;99920.76;2160996;81;28905;-65
2021/01/08 07:00:28;;;;;;;44.23;25.68;;;;;;;1.62;73.37;99925.56;2160084;81;32139;-66
2021/01/08 07:03:32;;;;;;;45.00;24.32;;;;;;;1.63;73.42;99922.03;2177465;81;33995;-64
2021/01/08 07:06:36;;;;;;;40.60;25.40;;;;;;;1.63;73.38;99923.34;2135332;81;28678;-64
2021/01/08 07:09:40;;;;;;;52.43;27.27;;;;;;;1.64;73.43;99923.77;2112724;81;28163;-65
2021/01/08 07:12:43;;;;;;;54.63;27.67;;;;;;;1.64;73.49;99925.09;2146047;81;29878;-65
2021/01/08 07:15:46;;;;;;;51.75;26.50;;;;;;;1.63;73.46;99925.98;2182471;80;31226;-67
2021/01/08 07:18:48;;;;;;;47.43;27.05;;;;;;;1.63;73.40;99920.70;2187338;80;33122;-65
2021/01/08 07:21:54;;;;;;;50.10;26.62;;;;;;;1.66;73.40;99929.01;2130700;80;29294;-65
2021/01/08 07:24:58;;;;;;;44.33;23.83;;;;;;;1.69;73.52;99926.31;2159746;81;27749;-65
2021/01/08 07:28:05;;;;;;;43.87;23.47;;;;;;;1.74;73.48;99931.03;2189342;80;29799;-65
2021/01/08 07:31:11;;;;;;;48.55;26.30;;;;;;;1.77;73.39;99936.27;2170523;80;31008;-66
2021/01/08 07:34:14;;;;;;;41.65;24.12;;;;;;;1.80;73.32;99936.67;2171170;80;32909;-66
2021/01/08 07:37:16;;;;;;;42.27;23.80;;;;;;;1.80;73.17;99936.21;2191288;80;28868;-65
2021/01/08 07:40:18;;;;;;;46.02;25.27;;;;;;;1.82;73.17;99945.45;2159741;81;27760;-65
2021/01/08 07:43:35;;;;;;;46.90;24.82;;;;;;;1.83;73.01;99945.83;2115222;80;28835;-65
2021/01/08 07:46:40;;;;;;;49.10;26.57;;;;;;;1.82;73.09;99942.80;2197165;80;31183;-65
2021/01/08 07:49:42;;;;;;;45.58;25.90;;;;;;;1.84;73.09;99938.33;2152666;80;33186;-65
2021/01/08 07:52:46;;;;;;;44.27;25.97;;;;;;;1.89;73.00;99938.27;2112525;81;29482;-65
2021/01/08 07:55:49;;;;;;;107.25;48.55;;;;;;;1.94;73.26;99946.52;2160078;81;27722;-66
2021/01/08 07:59:07;;;;;;;67.92;35.48;;;;;;;2.02;73.26;99954.28;2136429;80;28583;-64
2021/01/08 08:02:11;;;;;;;55.30;28.15;;;;;;;2.08;73.18;99953.28;2169553;81;27693;-66
2021/01/08 08:05:16;;;;;;;51.08;27.70;;;;;;;2.16;73.30;99951.80;2135346;81;33844;-64
2021/01/08 08:08:18;;;;;;;50.08;26.02;;;;;;;2.24;73.26;99954.70;2181699;81;28856;-65
2021/01/08 08:11:26;;;;;;;46.77;26.12;;;;;;;2.32;73.09;99946.62;2154594;80;28046;-66
2021/01/08 08:14:25;;;;;;;52.27;25.90;;;;;;;2.40;73.07;99955.70;2173299;80;29769;-65
2021/01/08 08:17:29;;;;;;;48.40;26.82;;;;;;;2.49;73.04;99949.34;2154458;81;32162;-66
2021/01/08 08:20:31;;;;;;;47.95;24.10;;;;;;;2.55;72.73;99950.55;2171944;80;32672;-65
2021/01/08 08:23:34;;;;;;;46.58;24.57;;;;;;;2.62;72.69;99945.98;2159420;81;28655;-66
2021/01/08 08:26:37;;;;;;;44.33;22.60;;;;;;;2.68;72.31;99944.50;2163196;80;27745;-65
2021/01/08 08:29:39;;;;;;;43.23;22.70;;;;;;;2.72;72.31;99939.13;2147192;80;28591;-64
2021/01/08 08:32:42;;;;;;;43.15;22.60;;;;;;;2.78;71.98;99950.02;2140984;81;32112;-65
2021/01/08 08:35:44;;;;;;;37.70;22.35;;;;;;;2.84;72.28;99951.64;2140408;83;33659;-64
2021/01/08 08:39:09;;;;;;;57.67;27.40;;;;;;;2.88;72.10;99950.67;2120881;81;28644;-65
2021/01/08 08:42:20;;;;;;;71.05;32.53;;;;;;;2.94;71.96;99950.51;2153730;80;27751;-63
2021/01/08 08:45:38;;;;;;;46.30;24.50;;;;;;;3.01;71.87;99956.52;2108713;83;28822;-64
2021/01/08 08:48:40;;;;;;;44.67;23.75;;;;;;;3.07;71.80;99948.45;2138856;83;32117;-65
2021/01/08 08:51:47;;;;;;;40.05;24.32;;;;;;;3.14;71.73;99952.69;2131209;83;33112;-65
2021/01/08 08:54:49;;;;;;;38.10;22.10;;;;;;;3.20;71.82;99951.66;2094447;81;28876;-65
2021/01/08 08:58:03;;;;;;;36.93;21.90;;;;;;;3.26;71.48;99952.81;2111443;81;27671;-64
2021/01/08 09:01:16;;;;;;;41.17;21.70;;;;;;;3.35;71.26;99943.77;2242025;78;27646;-65
2021/01/08 09:04:18;;;;;;;36.93;22.10;;;;;;;3.32;71.00;99947.37;2086131;81;27677;-65
2021/01/08 09:07:37;;;;;;;37.73;21.23;;;;;;;3.33;70.83;99948.23;2135755;81;28898;-64
2021/01/08 09:11:06;;;;;;;33.78;20.90;;;;;;;3.32;70.86;99946.05;2165682;79;31141;-64
2021/01/08 09:14:14;;;;;;;35.48;20.10;;;;;;;3.32;70.73;99947.37;2174602;79;33884;-63
2021/01/08 09:17:22;;;;;;;36.80;21.35;;;;;;;3.29;70.46;99955.39;2197889;79;28543;-65
2021/01/08 09:20:28;;;;;;;36.70;20.88;;;;;;;3.30;70.55;99961.58;2187018;79;27773;-64
2021/01/08 09:23:35;;;;;;;34.20;19.30;;;;;;;3.30;70.54;99957.60;2196542;79;28947;-61
2021/01/08 09:26:41;;;;;;;30.25;18.20;;;;;;;3.28;70.09;99958.95;2208272;79;31177;-60
2021/01/08 09:29:42;;;;;;;31.73;18.80;;;;;;;3.29;70.19;99959.83;2162574;79;34030;-60
2021/01/08 09:32:44;;;;;;;35.95;19.37;;;;;;;3.32;70.25;99950.02;2154518;79;28730;-60
2021/01/08 09:35:48;;;;;;;32.50;17.50;;;;;;;3.34;70.04;99952.63;2175098;79;27741;-61
2021/01/08 09:38:51;;;;;;;29.75;18.27;;;;;;;3.37;69.82;99946.40;2168584;79;28836;-61
2021/01/08 09:42:01;;;;;;;35.68;19.23;;;;;;;3.38;69.58;99943.70;2133123;81;31020;-61
2021/01/08 09:45:25;;;;;;;32.73;21.48;;;;;;;3.37;69.59;99945.93;2142447;79;33206;-62
2021/01/08 09:48:28;;;;;;;105.78;62.45;;;;;;;3.37;69.60;99945.93;2081271;84;29788;-60
2021/01/08 09:51:40;;;;;;;85.23;50.70;;;;;;;3.42;69.26;99937.86;2246616;77;27702;-61
2021/01/08 09:54:50;;;;;;;51.65;30.08;;;;;;;3.36;69.34;99940.22;2152478;80;27603;-61
2021/01/08 09:58:01;;;;;;;32.48;22.98;;;;;;;3.39;69.07;99937.97;2160524;80;29714;-61
2021/01/08 10:01:04;;;;;;;35.73;22.90;;;;;;;3.41;69.34;99934.36;2127689;80;31139;-63
2021/01/08 10:04:06;;;;;;;31.10;18.67;;;;;;;3.44;69.07;99935.61;2140485;81;33129;-64
2021/01/08 10:07:08;;;;;;;30.57;20.50;;;;;;;3.47;69.12;99928.91;2099154;80;28329;-62
2021/01/08 10:10:12;;;;;;;41.35;25.68;;;;;;;3.52;69.08;99938.48;2135897;80;27668;-61
2021/01/08 10:13:21;;;;;;;44.80;28.32;;;;;;;3.54;68.49;99930.94;2185138;80;28808;-63
2021/01/08 10:16:24;;;;;;;47.33;23.42;;;;;;;3.56;68.78;99934.86;2170985;81;32021;-61
2021/01/08 10:19:33;;;;;;;28.67;15.28;;;;;;;3.57;68.77;99931.30;2122811;81;32839;-62
2021/01/08 10:22:50;;;;;;;34.73;23.10;;;;;;;3.56;67.80;99931.73;2124487;81;29569;-62
2021/01/08 10:25:53;;;;;;;61.15;32.60;;;;;;;3.55;68.16;99937.09;2160482;80;27749;-61
2021/01/08 10:28:56;;;;;;;113.08;57.48;;;;;;;3.57;68.40;99935.27;2146756;81;29792;-62
2021/01/08 10:32:13;;;;;;;219.62;110.28;;;;;;;3.60;68.35;99933.41;2149096;81;30935;-60
2021/01/08 10:35:18;;;;;;;81.65;40.73;;;;;;;3.63;68.24;99932.47;2123623;81;34340;-60
2021/01/08 10:38:21;;;;;;;110.78;62.08;;;;;;;3.65;67.61;99932.83;2122112;81;28604;-62
2021/01/08 10:41:24;;;;;;;105.87;62.00;;;;;;;3.65;68.21;99925.33;2127774;80;28216;-66
2021/01/08 10:44:28;;;;;;;89.77;58.95;;;;;;;3.71;68.32;99919.88;2161367;80;29589;-62
2021/01/08 10:47:30;;;;;;;52.40;27.48;;;;;;;3.78;68.54;99922.78;2161318;80;31141;-62
2021/01/08 10:50:33;;;;;;;130.75;84.07;;;;;;;3.85;68.12;99919.50;2110541;81;32940;-58
2021/01/08 10:53:36;;;;;;;74.70;47.65;;;;;;;3.92;67.84;99922.84;2151430;80;28858;-65
2021/01/08 10:56:38;;;;;;;53.58;35.95;;;;;;;3.95;67.81;99918.78;2126990;81;28203;-61
2021/01/08 10:59:41;;;;;;;48.80;29.65;;;;;;;3.97;67.62;99918.29;2122183;81;28751;-64
2021/01/08 11:02:43;;;;;;;37.80;24.40;;;;;;;3.94;67.61;99919.70;2131706;80;31077;-65
2021/01/08 11:05:46;;;;;;;29.82;18.02;;;;;;;3.92;67.62;99916.22;2127823;81;32901;-64
2021/01/08 11:08:49;;;;;;;30.77;18.42;;;;;;;3.90;67.03;99920.69;2107238;81;28910;-60
2021/01/08 11:11:51;;;;;;;35.33;21.97;;;;;;;3.86;67.47;99909.75;2133142;81;27653;-60
2021/01/08 11:14:56;;;;;;;34.43;21.77;;;;;;;3.83;67.51;99909.83;2159368;80;28811;-63
2021/01/08 11:17:59;;;;;;;;;;;;;;;3.82;67.20;99909.42;2171358;80;30983;-63
2021/01/08 11:21:02;;;;;;;31.93;18.62;;;;;;;3.81;66.94;99904.59;2168544;80;32878;-61
2021/01/08 11:24:06;;;;;;;41.20;21.82;;;;;;;3.82;67.13;99908.09;2169561;80;28867;-61
2021/01/08 11:27:09;;;;;;;89.75;37.75;;;;;;;3.85;67.39;99906.69;2160582;81;27869;-61
2021/01/08 11:30:13;;;;;;;124.70;47.58;;;;;;;3.88;67.33;99911.91;2128317;81;28611;-60
2021/01/08 11:33:16;;;;;;;101.42;40.45;;;;;;;3.85;67.15;99908.90;2159135;80;31921;-60
2021/01/08 11:36:18;;;;;;;134.00;51.53;;;;;;;3.80;66.59;99910.80;2129442;81;35473;-62
2021/01/08 11:39:21;;;;;;;74.10;30.48;;;;;;;3.76;66.94;99907.81;2188537;80;28664;-61
2021/01/08 11:42:25;;;;;;;61.02;31.40;;;;;;;3.73;66.98;99912.75;2132049;81;27712;-69
2021/01/08 11:45:27;;;;;;;62.08;30.27;;;;;;;3.73;67.15;99922.47;2189894;80;29756;-61
2021/01/08 11:48:30;;;;;;;70.52;31.07;;;;;;;3.69;66.83;99904.47;2195649;80;31144;-64
2021/01/08 11:51:33;;;;;;;53.70;26.17;;;;;;;3.71;66.93;99907.09;2183163;80;32910;-60
2021/01/08 11:54:35;;;;;;;60.60;26.20;;;;;;;3.77;67.37;99909.55;2177986;81;28854;-61
2021/01/08 11:57:40;;;;;;;57.83;32.75;;;;;;;3.85;67.41;99904.92;2148754;80;27730;-62
2021/01/08 12:00:42;;;;;;;51.73;32.28;;;;;;;3.95;67.10;99909.51;2148791;81;28824;-61
2021/01/08 12:03:45;;;;;;;46.02;26.57;;;;;;;4.00;66.35;99917.32;2169522;80;31201;-63
2021/01/08 12:06:48;;;;;;;55.67;34.05;;;;;;;4.05;67.05;99916.73;2173742;80;33552;-66
2021/01/08 12:09:50;;;;;;;40.67;25.43;;;;;;;4.15;67.15;99919.52;2155621;81;28848;-62
2021/01/08 12:12:54;;;;;;;32.25;17.70;;;;;;;4.24;67.06;99915.27;2122887;81;28219;-63
2021/01/08 12:15:56;;;;;;;43.83;24.98;;;;;;;4.31;66.88;99915.94;2093837;81;29701;-64
2021/01/08 12:19:00;;;;;;;35.50;21.00;;;;;;;4.36;66.91;99912.70;2145869;80;32236;-60
2021/01/08 12:22:04;;;;;;;31.35;19.85;;;;;;;4.40;66.89;99918.77;2163474;80;32899;-63
2021/01/08 12:25:09;;;;;;;32.40;19.65;;;;;;;4.41;66.50;99912.12;2091430;81;28402;-62
2021/01/08 12:28:13;;;;;;;27.87;17.32;;;;;;;4.43;66.69;99913.38;2125020;81;27732;-73
2021/01/08 12:31:24;;;;;;;24.35;15.05;;;;;;;4.45;66.69;99916.01;2097812;81;28838;-72
2021/01/08 12:34:27;;;;;;;24.52;17.55;;;;;;;4.45;66.32;99910.23;2177855;81;31202;-67
2021/01/08 12:37:29;;;;;;;29.05;19.20;;;;;;;4.44;66.58;99914.27;2124703;81;32908;-62
2021/01/08 12:40:32;;;;;;;31.52;20.62;;;;;;;4.45;66.44;99914.68;2124416;81;28630;-62
2021/01/08 12:43:34;;;;;;;33.98;19.65;;;;;;;4.45;66.66;99910.70;2124436;78;27687;-65
2021/01/08 12:46:37;;;;;;;44.93;26.60;;;;;;;4.48;66.84;99915.45;2177956;80;28815;-64
2021/01/08 12:49:40;;;;;;;32.03;18.92;;;;;;;4.51;66.70;99914.47;2152327;80;31159;-68
2021/01/08 12:52:43;;;;;;;62.95;34.33;;;;;;;4.50;66.65;99918.04;2216587;80;32920;-62
2021/01/08 12:55:47;;;;;;;52.95;28.98;;;;;;;4.52;67.00;99917.09;2186105;80;29368;-63
2021/01/08 12:58:50;;;;;;;27.32;14.90;;;;;;;4.55;67.08;99920.10;2126282;80;27787;-67
2021/01/08 13:01:57;;;;;;;25.43;15.90;;;;;;;4.53;66.57;99919.27;2130760;80;28636;-63
2021/01/08 13:05:00;;;;;;;37.65;24.23;;;;;;;4.48;66.58;99919.42;2155073;80;30813;-64
2021/01/08 13:08:02;;;;;;;46.68;21.87;;;;;;;4.49;67.06;99918.52;2185044;80;33684;-62
2021/01/08 13:11:04;;;;;;;20.43;13.10;;;;;;;4.54;66.98;99917.03;2131786;80;28874;-69
2021/01/08 13:14:07;;;;;;;42.58;33.00;;;;;;;4.53;67.01;99919.27;2133060;80;27659;-68
2021/01/08 13:17:09;;;;;;;100.87;42.75;;;;;;;4.54;67.08;99925.00;2160191;80;28852;-63
2021/01/08 13:20:13;;;;;;;63.02;27.40;;;;;;;4.53;66.67;99926.80;2147389;81;31627;-62
2021/01/08 13:23:16;;;;;;;50.15;23.50;;;;;;;4.52;66.77;99926.83;2139084;81;33124;-63
2021/01/08 13:26:25;;;;;;;62.93;26.15;;;;;;;4.54;67.14;99931.63;2139310;80;28869;-63
2021/01/08 13:29:28;;;;;;;66.20;29.07;;;;;;;4.56;67.04;99935.10;2158424;80;27633;-64
2021/01/08 13:32:30;;;;;;;46.92;22.77;;;;;;;4.55;67.18;99934.22;2158484;80;28844;-62
2021/01/08 13:35:33;;;;;;;28.17;17.80;;;;;;;4.56;67.13;99934.63;2186141;80;30972;-64
2021/01/08 13:38:37;;;;;;;27.37;16.87;;;;;;;4.55;67.26;99938.20;2163121;80;33126;-62
2021/01/08 13:41:40;;;;;;;29.37;18.10;;;;;;;4.53;67.30;99945.36;2125250;78;29255;-62
2021/01/08 13:44:42;;;;;;;28.75;18.75;;;;;;;4.48;67.34;99947.27;2162528;80;27695;-62
2021/01/08 13:47:45;;;;;;;37.00;20.30;;;;;;;4.47;67.50;99949.98;2184830;80;28836;-62
2021/01/08 13:50:48;;;;;;;27.80;17.73;;;;;;;4.43;67.48;99955.81;2155985;80;30965;-62
2021/01/08 13:53:51;;;;;;;27.55;17.70;;;;;;;4.39;67.54;99959.03;2136430;80;32897;-62
2021/01/08 13:56:55;;;;;;;28.02;18.75;;;;;;;4.35;67.52;99961.83;2186291;80;29780;-62
2021/01/08 13:59:58;;;;;;;32.20;17.40;;;;;;;4.30;67.40;99963.73;2136487;80;27596;-62
2021/01/08 14:03:00;;;;;;;28.10;17.92;;;;;;;4.23;67.63;99968.34;2161380;80;29712;-62
2021/01/08 14:06:04;;;;;;;27.75;16.90;;;;;;;4.16;67.70;99968.98;2160969;80;32631;-68
2021/01/08 14:09:08;;;;;;;30.27;16.42;;;;;;;4.09;67.79;99968.29;2132452;80;33106;-63
2021/01/08 14:12:11;;;;;;;26.82;15.98;;;;;;;4.02;68.03;99968.03;2112816;81;28881;-63
2021/01/08 14:15:17;;;;;;;30.88;16.60;;;;;;;3.99;68.12;99971.23;2145892;81;27686;-63
2021/01/08 14:18:22;;;;;;;37.53;24.15;;;;;;;3.97;68.36;99968.64;2124855;81;28661;-64
2021/01/08 14:21:36;;;;;;;;;;;;;;;3.98;68.48;99972.15;2141938;81;31169;-63
2021/01/08 14:24:39;;;;;;;49.85;27.80;;;;;;;3.98;68.59;99975.66;2124610;81;33987;-70